createdAt,value
2023-03-29T00:04:54.587Z,68
2023-03-29T00:24:54.109Z,71.6
2023-03-29T00:44:54.158Z,71.5
2023-03-29T01:04:54.264Z,71.8
2023-03-29T01:24:54.253Z,74.3
2023-03-29T01:44:54.351Z,76.6
2023-03-29T02:04:54.353Z,79.1
2023-03-29T02:24:54.401Z,80.4
2023-03-29T02:44:54.467Z,82.6
2023-03-29T03:04:54.561Z,83.8
2023-03-29T03:24:54.492Z,85.3
2023-03-29T03:44:54.637Z,85.5
2023-03-29T04:04:54.651Z,86.7
2023-03-29T04:24:54.651Z,86.5
2023-03-29T04:44:54.779Z,86.4
2023-03-29T05:04:54.840Z,86.4
2023-03-29T05:24:54.784Z,86
2023-03-29T05:44:54.871Z,86
2023-03-29T06:04:54.947Z,85.5
2023-03-29T06:24:54.916Z,84.7
2023-03-29T06:44:54.987Z,84
2023-03-29T07:04:54.966Z,82.1
2023-03-29T07:24:55.053Z,79.8
2023-03-29T07:44:55.082Z,77.6
2023-03-29T08:04:55.194Z,77.5
2023-03-29T08:24:55.227Z,77.1
2023-03-29T08:44:55.231Z,74.1
2023-03-29T09:04:55.287Z,71.8
2023-03-29T09:24:55.298Z,68
2023-03-29T09:44:55.417Z,67.4
2023-03-29T10:04:55.428Z,62.8
2023-03-29T10:24:55.478Z,56.9
2023-03-29T10:44:55.415Z,57.8
2023-03-29T11:04:55.455Z,54.6
2023-03-29T11:24:55.566Z,52.3
2023-03-29T11:44:55.614Z,53.8
2023-03-29T12:04:55.593Z,55.3
2023-03-29T12:24:55.657Z,55.3
2023-03-29T12:44:55.671Z,56.2
2023-03-29T13:04:55.813Z,57.7
2023-03-29T13:24:55.736Z,58.2
2023-03-29T13:44:55.708Z,58.1
2023-03-29T14:04:55.771Z,56.5
2023-03-29T14:24:55.816Z,57.2
2023-03-29T14:44:55.882Z,56.4
2023-03-29T15:04:55.920Z,54.5
2023-03-29T15:24:55.967Z,56.3
2023-03-29T15:44:55.998Z,58.9
2023-03-29T16:04:56.055Z,59.4
2023-03-29T16:24:56.097Z,61.4
2023-03-29T16:44:56.035Z,63.6
2023-03-29T17:04:56.095Z,65.8
2023-03-29T17:24:56.108Z,66.9
2023-03-29T17:44:56.111Z,68.4
2023-03-29T18:04:56.140Z,69.8
2023-03-29T18:24:56.235Z,72.2
2023-03-29T18:44:56.328Z,74.6
2023-03-29T19:04:56.398Z,75.5
2023-03-29T19:24:56.339Z,77.1
2023-03-29T19:44:56.376Z,78
2023-03-29T20:04:56.376Z,78.3
2023-03-29T20:24:56.431Z,83.6
2023-03-29T20:44:56.516Z,85.6
2023-03-29T21:04:56.518Z,86.3
2023-03-29T21:24:56.588Z,86.9
2023-03-29T21:44:56.611Z,88.9
2023-03-29T22:04:56.780Z,88.8
2023-03-29T22:24:56.675Z,89.1
2023-03-29T22:44:56.663Z,89.7
2023-03-29T23:04:56.775Z,90.1
2023-03-29T23:24:56.808Z,90.8
2023-03-29T23:44:56.822Z,91.3
